• Join FlightAware (Why Join?)
  • Login
  • US Flag 
04:28PM EDT


 

Airport Tracker/Info


-or-


 

Live Flight TrackerFlight Track Log ✈ UPS1337 ✈ 25-Mar-2014 ✈ KPIE - KSDF

Flight Track Log - Related Links

Times and Time Zones

All times are in EDT time to prevent confusion due to time zone crossing. See the UPS1337 flight status page for this flight to view local times or setup timezone preferences in your user account.

Time Position Orientation Groundspeed Altitude Reporting Facility
EDT Latitude Longitude Course Direction KTS MPH feet Rate Location/Type
09:39PM 27.9167 -82.6833 360° North 205 236 600  Level Tampa TRACON
09:40PM 27.9667 -82.6833 360° North 187 215 2,700 2,940 Climbing Tampa TRACON
09:41PM 28.0167 -82.6667 16° North 255 293 5,900 2,640 Climbing Tampa TRACON
09:47PM 28.6549 -82.6352 North 428 493 22,200 2,280 Climbing FlightAware ADS-B (KMCO)
09:50PM 29.0925 -82.6166 North 462 532 28,800 1,740 Climbing FlightAware ADS-B (KMCO)
09:51PM 29.2051 -82.6119 North 464 534 30,000 540 Climbing FlightAware ADS-B (KMCO)
09:53PM 29.3350 -82.6044 North 459 528 30,000 120 Level Jacksonville Center
09:59PM 30.1400 -82.5709 North 457 526 31,000 120 Climbing FlightAware ADS-B (KMCO)
09:59PM 30.2238 -82.5671 North 454 522 31,000  Level FlightAware ADS-B (KMCO)
10:01PM 30.3622 -82.5628 North 454 522 31,000 -60 Level Jacksonville Center
10:02PM 30.4875 -82.5575 North 454 522 30,900  Descending Jacksonville Center
10:03PM 30.6147 -82.5497 North 454 522 31,000  Climbing Jacksonville Center
10:04PM 30.7422 -82.5469 North 454 522 31,000  Level Jacksonville Center
10:05PM 30.8694 -82.5417 North 460 529 31,000  Level Jacksonville Center
10:06PM 30.9967 -82.5364 North 455 524 31,000 -60 Level Jacksonville Center
10:07PM 31.1053 -82.5311 North 449 517 30,900  Descending Jacksonville Center
10:08PM 31.2286 -82.5258 North 443 510 31,000  Climbing Jacksonville Center
10:09PM 31.3664 -82.5178 North 444 511 31,000 240 Level Jacksonville Center
10:11PM 31.6458 -82.5508 354° North 435 501 32,000 240 Climbing Atlanta Center
10:12PM 31.7528 -82.5881 344° North 411 473 32,000  Level Atlanta Center
10:13PM 31.8594 -82.6281 342° North 406 467 32,000  Level Atlanta Center
10:14PM 31.9686 -82.6678 343° North 406 467 32,000  Level Atlanta Center
10:15PM 32.0756 -82.7103 341° North 406 467 32,000  Level Atlanta Center
10:16PM 32.1822 -82.7506 342° North 406 467 32,000  Level Atlanta Center
10:17PM 32.2872 -82.7908 342° North 406 467 32,000  Level Atlanta Center
10:18PM 32.3919 -82.8311 342° North 406 467 32,000  Level Atlanta Center
10:19PM 32.4986 -82.8689 343° North 406 467 32,000  Level Atlanta Center
10:20PM 32.6119 -82.9119 342° North 394 453 32,000  Level Atlanta Center
10:21PM 32.7083 -82.9528 340° North 394 453 32,000  Level Atlanta Center
10:22PM 32.8192 -82.9908 344° North 389 448 32,000  Level Atlanta Center
10:23PM 32.9197 -83.0292 342° North 382 440 32,000  Level Atlanta Center
10:24PM 33.0244 -83.0700 342° North 382 440 32,000  Level Atlanta Center
10:25PM 33.1228 -83.1111 341° North 382 440 32,000  Level Atlanta Center
10:26PM 33.2253 -83.1522 341° North 382 440 32,000  Level Atlanta Center
10:27PM 33.3258 -83.1886 343° North 382 440 32,000  Level Atlanta Center
10:28PM 33.4283 -83.2275 342° North 382 440 32,000  Level Atlanta Center
10:29PM 33.5308 -83.2689 341° North 388 447 32,000  Level Atlanta Center
10:30PM 33.6272 -83.3053 343° North 388 447 32,000  Level Atlanta Center
10:35PM 34.2358 -83.5386 342° North 388 447 32,000  Level FlightAware ADS-B (KDZJ)
10:36PM 34.3069 -83.5669 342° North 378 435 32,000  Level FlightAware ADS-B (KDZJ)
10:36PM 34.3616 -83.5884 342° North 377 434 32,000  Level FlightAware ADS-B (KDZJ)
10:37PM 34.4384 -83.6187 342° North 388 447 32,000  Level FlightAware ADS-B (KDZJ)
10:38PM 34.5067 -83.6458 342° North 387 445 32,000  Level FlightAware ADS-B (KDZJ)
10:38PM 34.5754 -83.6735 342° North 387 445 32,000  Level FlightAware ADS-B (KDZJ)
10:39PM 34.6394 -83.6986 341° North 377 434 32,000  Level FlightAware ADS-B (KDZJ)
10:39PM 34.7034 -83.7245 342° North 378 435 32,000  Level FlightAware ADS-B (KDZJ)
10:40PM 34.7806 -83.7553 342° North 392 451 32,000  Level FlightAware ADS-B (KDZJ)
10:41PM 34.8503 -83.7831 341° North 374 430 32,000  Level FlightAware ADS-B (KDZJ)
10:42PM 34.9166 -83.8099 342° North 374 430 32,000  Level FlightAware ADS-B (KDZJ)
10:42PM 34.9786 -83.8352 342° North 374 430 32,000  Level FlightAware ADS-B (KDZJ)
10:43PM 35.0472 -83.8624 342° North 374 430 32,000  Level FlightAware ADS-B (KDZJ)
10:44PM 35.1149 -83.8898 342° North 374 430 32,000  Level FlightAware ADS-B (KDZJ)
10:44PM 35.1749 -83.9143 342° North 371 427 32,000  Level FlightAware ADS-B (KDZJ)
10:45PM 35.2287 -83.9361 342° North 371 427 32,000  Level FlightAware ADS-B (KDZJ)
10:45PM 35.2911 -83.9613 342° North 374 430 32,000  Level FlightAware ADS-B (KDZJ)
10:46PM 35.3736 -83.9949 342° North 376 433 32,000  Level FlightAware ADS-B (KDZJ)
10:47PM 35.3614 -83.9928 342° North 370 426 32,000  Level Atlanta Center
10:48PM 35.4594 -84.0311 342° North 370 426 32,000  Level Atlanta Center
10:49PM 35.5556 -84.0719 341° North 370 426 32,000  Level Atlanta Center
10:50PM 35.6494 -84.1103 342° North 370 426 32,000  Level Atlanta Center
10:51PM 35.7453 -84.1514 341° North 370 426 32,000  Level Atlanta Center
10:52PM 35.8350 -84.1847 343° North 357 411 32,000 -660 Level Atlanta Center
10:53PM 35.9225 -84.2233 340° North 346 398 30,700 -660 Descending Atlanta Center
10:55PM 36.1139 -84.3003 342° North 330 380 30,000 -240 Descending Indianapolis Center
10:56PM 36.2006 -84.3361 342° North 329 379 30,000  Level Indianapolis Center
10:57PM 36.2883 -84.3728 341° North 330 380 30,000  Level Indianapolis Center
10:58PM 36.3756 -84.4089 342° North 330 380 30,000  Level Indianapolis Center
10:59PM 36.4622 -84.4453 341° North 330 380 30,000 -840 Level Indianapolis Center
11:00PM 36.5622 -84.4872 341° North 330 380 28,400 -2,100 Descending Indianapolis Center
11:01PM 36.6356 -84.5181 341° North 329 379 25,800 -2,220 Descending Indianapolis Center
11:02PM 36.7194 -84.5539 341° North 324 373 24,000 -1,380 Descending Indianapolis Center
11:03PM 36.8256 -84.5981 342° North 329 379 23,000 -1,380 Descending Indianapolis Center
11:09PM 37.2983 -84.8000 341° North 303 349 15,300 -1,260 Descending FlightAware ADS-B (KBRY)
11:14PM 37.6963 -85.0119 292° West 297 342 9,700 -900 Descending FlightAware ADS-B (KBRY)
11:15PM 37.7382 -85.1244 297° West 250 288 9,500 -1,080 Descending FlightAware ADS-B (KBRY)
11:16PM 37.7719 -85.2067 297° West 245 282 7,600 -1,860 Descending FlightAware ADS-B (KBRY)
11:17PM 37.8038 -85.2851 298° West 244 281 5,900 -1,500 Descending FlightAware ADS-B (KBRY)
11:18PM 37.8336 -85.3577 297° West 237 273 4,700 -1,080 Descending FlightAware ADS-B (KBRY)
11:19PM 37.8643 -85.4319 298° West 232 267 3,800 -720 Descending FlightAware ADS-B (KBRY)
11:20PM 37.8951 -85.5052 303° West 231 266 3,300 -660 Descending FlightAware ADS-B (KBRY)
11:21PM 37.9331 -85.5717 310° West 228 262 2,500 -600 Descending FlightAware ADS-B (KBRY)
11:22PM 37.9738 -85.6314 311° West 226 260 2,200 -180 Descending FlightAware ADS-B (KBRY)
11:23PM 38.0143 -85.6868 321° Northwest 187 215 2,200  Level FlightAware ADS-B (KBRY)
11:24PM 38.0567 -85.7056 345° North 146 168 2,200 -300 Level FlightAware ADS-B (KBRY)
11:25PM 38.0910 -85.7171 345° North 113 130 1,600 -660 Descending FlightAware ADS-B (KBRY)
11:26PM 38.1180 -85.7260 345° North 116 133 1,000 -360 Descending FlightAware ADS-B (KBRY)
11:26PM 38.1333 -85.7333 208° Southwest 117 135 1,200 660 Climbing Louisville TRACON
11:28PM 38.1667 -85.7333 208° Southwest  Level FlightAware Approximate
11:32PM 38.1667 -85.7333 208° Southwest  Level FlightAware Approximate
11:35PM 38.1741 -85.7365 208° Southwest  Level Estimated
11:36PM 38.1741 -85.7365 208° Southwest  Level Estimated